sensor_id;sensor_type;location;lat;lon;timestamp;pressure;altitude;pressure_sealevel;temperature;humidity
31337;BME280;22846;42.654;23.314;2023-01-29T00:01:15;94539.13;;;24.13;46.35
31337;BME280;22846;42.654;23.314;2023-01-29T00:03:40;94535.75;;;24.09;46.32
31337;BME280;22846;42.654;23.314;2023-01-29T00:06:07;94536.84;;;23.99;46.76
31337;BME280;22846;42.654;23.314;2023-01-29T00:08:36;94528.88;;;23.92;46.31
31337;BME280;22846;42.654;23.314;2023-01-29T00:11:04;94541.97;;;23.97;46.51
31337;BME280;22846;42.654;23.314;2023-01-29T00:13:30;94547.53;;;23.93;46.82
31337;BME280;22846;42.654;23.314;2023-01-29T00:15:57;94549.19;;;23.91;46.51
31337;BME280;22846;42.654;23.314;2023-01-29T00:18:24;94553.56;;;23.89;46.63
31337;BME280;22846;42.654;23.314;2023-01-29T00:20:50;94550.16;;;23.85;46.75
31337;BME280;22846;42.654;23.314;2023-01-29T00:23:15;94550.59;;;23.83;46.99
31337;BME280;22846;42.654;23.314;2023-01-29T00:25:41;94556.16;;;23.80;46.79
31337;BME280;22846;42.654;23.314;2023-01-29T00:28:07;94562.47;;;23.77;46.83
31337;BME280;22846;42.654;23.314;2023-01-29T00:30:32;94559.81;;;23.73;47.20
31337;BME280;22846;42.654;23.314;2023-01-29T00:32:58;94556.75;;;23.71;46.99
31337;BME280;22846;42.654;23.314;2023-01-29T00:35:24;94553.47;;;23.64;47.08
31337;BME280;22846;42.654;23.314;2023-01-29T00:37:49;94559.25;;;23.66;47.21
31337;BME280;22846;42.654;23.314;2023-01-29T00:40:15;94556.19;;;23.64;47.05
31337;BME280;22846;42.654;23.314;2023-01-29T00:42:40;94564.06;;;23.62;47.06
31337;BME280;22846;42.654;23.314;2023-01-29T00:45:27;94557.94;;;23.58;46.84
31337;BME280;22846;42.654;23.314;2023-01-29T00:47:52;94564.56;;;23.57;47.33
31337;BME280;22846;42.654;23.314;2023-01-29T00:50:17;94547.66;;;23.49;47.06
31337;BME280;22846;42.654;23.314;2023-01-29T00:52:43;94562.41;;;23.52;47.00
31337;BME280;22846;42.654;23.314;2023-01-29T00:55:09;94561.31;;;23.49;47.39
31337;BME280;22846;42.654;23.314;2023-01-29T00:57:36;94561.47;;;23.42;46.95
31337;BME280;22846;42.654;23.314;2023-01-29T01:00:04;94567.28;;;23.44;47.01
31337;BME280;22846;42.654;23.314;2023-01-29T01:02:30;94561.47;;;23.42;47.05
31337;BME280;22846;42.654;23.314;2023-01-29T01:05:18;94559.63;;;23.39;47.16
31337;BME280;22846;42.654;23.314;2023-01-29T01:07:45;94563.56;;;23.38;47.47
31337;BME280;22846;42.654;23.314;2023-01-29T01:10:14;94564.00;;;23.37;47.08
31337;BME280;22846;42.654;23.314;2023-01-29T01:12:54;94566.03;;;23.33;47.31
31337;BME280;22846;42.654;23.314;2023-01-29T01:15:21;94558.31;;;23.31;47.20
31337;BME280;22846;42.654;23.314;2023-01-29T01:17:51;94564.16;;;23.30;46.90
31337;BME280;22846;42.654;23.314;2023-01-29T01:20:16;94561.13;;;23.28;47.13
31337;BME280;22846;42.654;23.314;2023-01-29T01:22:41;94559.59;;;23.27;47.47
31337;BME280;22846;42.654;23.314;2023-01-29T01:25:07;94547.59;;;23.24;47.53
31337;BME280;22846;42.654;23.314;2023-01-29T01:27:33;94555.00;;;23.24;47.63
31337;BME280;22846;42.654;23.314;2023-01-29T01:29:59;94558.16;;;23.22;47.13
31337;BME280;22846;42.654;23.314;2023-01-29T01:32:24;94554.34;;;23.20;47.28
31337;BME280;22846;42.654;23.314;2023-01-29T01:34:51;94553.22;;;23.17;47.15
31337;BME280;22846;42.654;23.314;2023-01-29T01:37:16;94551.69;;;23.16;47.58
31337;BME280;22846;42.654;23.314;2023-01-29T01:39:41;94552.13;;;23.15;47.48
31337;BME280;22846;42.654;23.314;2023-01-29T01:42:13;94557.34;;;23.09;47.64
31337;BME280;22846;42.654;23.314;2023-01-29T01:45:02;94554.94;;;23.11;47.38
31337;BME280;22846;42.654;23.314;2023-01-29T01:47:40;94559.31;;;23.09;47.45
31337;BME280;22846;42.654;23.314;2023-01-29T01:50:12;94567.13;;;23.07;47.32
31337;BME280;22846;42.654;23.314;2023-01-29T01:52:45;94569.88;;;23.07;47.53
31337;BME280;22846;42.654;23.314;2023-01-29T01:55:15;94562.94;;;23.03;47.34
31337;BME280;22846;42.654;23.314;2023-01-29T01:57:44;94569.19;;;23.03;47.57
31337;BME280;22846;42.654;23.314;2023-01-29T02:00:14;94573.09;;;23.02;47.46
31337;BME280;22846;42.654;23.314;2023-01-29T02:02:43;94573.50;;;23.01;47.33
31337;BME280;22846;42.654;23.314;2023-01-29T02:05:31;94573.19;;;22.99;47.36
31337;BME280;22846;42.654;23.314;2023-01-29T02:08:31;94568.94;;;22.98;47.76
31337;BME280;22846;42.654;23.314;2023-01-29T02:11:18;94575.56;;;22.97;47.68
31337;BME280;22846;42.654;23.314;2023-01-29T02:13:44;94565.19;;;22.92;47.65
31337;BME280;22846;42.654;23.314;2023-01-29T02:16:09;94570.63;;;22.92;47.58
31337;BME280;22846;42.654;23.314;2023-01-29T02:18:35;94575.66;;;22.93;47.65
31337;BME280;22846;42.654;23.314;2023-01-29T02:21:31;94579.59;;;22.92;47.55
31337;BME280;22846;42.654;23.314;2023-01-29T02:29:37;94582.06;;;22.87;47.79
31337;BME280;22846;42.654;23.314;2023-01-29T02:32:14;94581.06;;;22.81;47.79
31337;BME280;22846;42.654;23.314;2023-01-29T02:34:57;94585.81;;;22.77;47.77
31337;BME280;22846;42.654;23.314;2023-01-29T02:38:11;94592.72;;;22.81;47.67
31337;BME280;22846;42.654;23.314;2023-01-29T02:41:03;94593.91;;;22.80;47.99
31337;BME280;22846;42.654;23.314;2023-01-29T02:43:44;94593.53;;;22.78;47.47
31337;BME280;22846;42.654;23.314;2023-01-29T02:51:49;94605.31;;;22.75;47.83
31337;BME280;22846;42.654;23.314;2023-01-29T02:54:18;94598.34;;;22.74;47.97
31337;BME280;22846;42.654;23.314;2023-01-29T02:56:58;94605.72;;;22.74;47.79
31337;BME280;22846;42.654;23.314;2023-01-29T02:59:32;94600.38;;;22.70;48.03
31337;BME280;22846;42.654;23.314;2023-01-29T03:02:12;94593.72;;;22.71;47.72
31337;BME280;22846;42.654;23.314;2023-01-29T03:04:44;94601.56;;;22.69;48.05
31337;BME280;22846;42.654;23.314;2023-01-29T03:07:16;94600.06;;;22.68;47.94
31337;BME280;22846;42.654;23.314;2023-01-29T03:10:17;94603.53;;;22.69;48.05
31337;BME280;22846;42.654;23.314;2023-01-29T03:12:51;94605.50;;;22.68;48.01
31337;BME280;22846;42.654;23.314;2023-01-29T03:15:24;94605.91;;;22.67;48.10
31337;BME280;22846;42.654;23.314;2023-01-29T03:18:22;94604.38;;;22.66;47.68
31337;BME280;22846;42.654;23.314;2023-01-29T03:20:54;94611.00;;;22.65;47.99
31337;BME280;22846;42.654;23.314;2023-01-29T03:23:28;94605.25;;;22.63;47.80
31337;BME280;22846;42.654;23.314;2023-01-29T03:26:15;94607.97;;;22.63;47.95
31337;BME280;22846;42.654;23.314;2023-01-29T03:29:02;94598.44;;;22.55;47.84
31337;BME280;22846;42.654;23.314;2023-01-29T03:31:48;94609.56;;;22.60;47.96
31337;BME280;22846;42.654;23.314;2023-01-29T03:34:40;94614.25;;;22.60;47.82
31337;BME280;22846;42.654;23.314;2023-01-29T03:37:38;94606.53;;;22.58;47.96
31337;BME280;22846;42.654;23.314;2023-01-29T03:40:07;94614.69;;;22.58;48.07
31337;BME280;22846;42.654;23.314;2023-01-29T03:42:58;94608.91;;;22.56;47.82
31337;BME280;22846;42.654;23.314;2023-01-29T03:45:40;94611.69;;;22.53;48.16
31337;BME280;22846;42.654;23.314;2023-01-29T03:50:52;94609.72;;;22.53;48.05
31337;BME280;22846;42.654;23.314;2023-01-29T03:53:26;94606.66;;;22.51;48.22
31337;BME280;22846;42.654;23.314;2023-01-29T03:56:01;94607.09;;;22.50;48.12
31337;BME280;22846;42.654;23.314;2023-01-29T04:01:39;94611.00;;;22.49;48.21
31337;BME280;22846;42.654;23.314;2023-01-29T04:04:27;94606.75;;;22.48;48.04
31337;BME280;22846;42.654;23.314;2023-01-29T04:06:57;94612.97;;;22.48;47.83
31337;BME280;22846;42.654;23.314;2023-01-29T04:09:33;94613.81;;;22.45;48.04
31337;BME280;22846;42.654;23.314;2023-01-29T04:12:06;94607.63;;;22.45;48.09
31337;BME280;22846;42.654;23.314;2023-01-29T04:14:34;94607.34;;;22.39;48.11
31337;BME280;22846;42.654;23.314;2023-01-29T04:17:16;94618.16;;;22.43;48.41
31337;BME280;22846;42.654;23.314;2023-01-29T04:19:43;94610.75;;;22.43;48.05
31337;BME280;22846;42.654;23.314;2023-01-29T04:22:19;94621.31;;;22.41;48.12
31337;BME280;22846;42.654;23.314;2023-01-29T04:24:47;94629.50;;;22.41;47.93
31337;BME280;22846;42.654;23.314;2023-01-29T04:27:36;94621.72;;;22.40;48.23
31337;BME280;22846;42.654;23.314;2023-01-29T04:40:56;94633.88;;;22.35;48.19
31337;BME280;22846;42.654;23.314;2023-01-29T04:43:29;94635.84;;;22.35;47.95
31337;BME280;22846;42.654;23.314;2023-01-29T04:46:14;94633.56;;;22.33;48.07
31337;BME280;22846;42.654;23.314;2023-01-29T04:54:13;94629.72;;;22.31;48.11
31337;BME280;22846;42.654;23.314;2023-01-29T04:56:41;94633.22;;;22.31;48.09
31337;BME280;22846;42.654;23.314;2023-01-29T04:59:16;94627.38;;;22.29;47.93
31337;BME280;22846;42.654;23.314;2023-01-29T05:01:44;94627.38;;;22.29;48.02
31337;BME280;22846;42.654;23.314;2023-01-29T05:04:13;94631.28;;;22.28;47.88
31337;BME280;22846;42.654;23.314;2023-01-29T05:06:39;94634.03;;;22.28;48.12
31337;BME280;22846;42.654;23.314;2023-01-29T05:09:06;94639.47;;;22.28;48.29
31337;BME280;22846;42.654;23.314;2023-01-29T05:11:33;94637.94;;;22.27;47.95
31337;BME280;22846;42.654;23.314;2023-01-29T05:14:02;94634.44;;;22.27;48.13
31337;BME280;22846;42.654;23.314;2023-01-29T05:16:32;94641.84;;;22.26;48.01
31337;BME280;22846;42.654;23.314;2023-01-29T05:19:09;94643.03;;;22.25;47.95
31337;BME280;22846;42.654;23.314;2023-01-29T05:21:36;94643.81;;;22.26;48.41
31337;BME280;22846;42.654;23.314;2023-01-29T05:24:11;94643.88;;;22.23;48.27
31337;BME280;22846;42.654;23.314;2023-01-29T05:26:37;94641.59;;;22.21;47.92
31337;BME280;22846;42.654;23.314;2023-01-29T05:29:21;94647.78;;;22.22;48.11
31337;BME280;22846;42.654;23.314;2023-01-29T05:31:46;94644.31;;;22.21;48.06
31337;BME280;22846;42.654;23.314;2023-01-29T05:34:12;94646.69;;;22.19;48.05
31337;BME280;22846;42.654;23.314;2023-01-29T05:36:37;94650.16;;;22.20;48.20
31337;BME280;22846;42.654;23.314;2023-01-29T05:39:02;94626.06;;;22.02;48.30
31337;BME280;22846;42.654;23.314;2023-01-29T05:41:28;94657.56;;;22.19;48.16
31337;BME280;22846;42.654;23.314;2023-01-29T05:43:53;94666.94;;;22.18;48.15
31337;BME280;22846;42.654;23.314;2023-01-29T05:46:19;94661.47;;;22.18;48.10
31337;BME280;22846;42.654;23.314;2023-01-29T05:48:44;94665.38;;;22.17;48.15
31337;BME280;22846;42.654;23.314;2023-01-29T05:51:09;94666.56;;;22.16;48.24
31337;BME280;22846;42.654;23.314;2023-01-29T05:53:35;94668.53;;;22.16;48.26
31337;BME280;22846;42.654;23.314;2023-01-29T05:56:02;94668.19;;;22.14;48.00
31337;BME280;22846;42.654;23.314;2023-01-29T05:58:29;94670.91;;;22.14;48.04
31337;BME280;22846;42.654;23.314;2023-01-29T06:00:55;94679.06;;;22.14;48.11
31337;BME280;22846;42.654;23.314;2023-01-29T06:03:21;94676.34;;;22.14;48.48
31337;BME280;22846;42.654;23.314;2023-01-29T06:05:46;94674.81;;;22.13;48.25
31337;BME280;22846;42.654;23.314;2023-01-29T06:08:12;94669.53;;;22.06;48.13
31337;BME280;22846;42.654;23.314;2023-01-29T06:10:37;94679.91;;;22.11;48.23
31337;BME280;22846;42.654;23.314;2023-01-29T06:13:03;94688.06;;;22.11;48.27
31337;BME280;22846;42.654;23.314;2023-01-29T06:15:28;94688.06;;;22.11;48.29
31337;BME280;22846;42.654;23.314;2023-01-29T06:17:54;94691.22;;;22.09;47.99
31337;BME280;22846;42.654;23.314;2023-01-29T06:20:19;94687.47;;;22.03;48.15
31337;BME280;22846;42.654;23.314;2023-01-29T06:22:45;94694.69;;;22.10;48.32
31337;BME280;22846;42.654;23.314;2023-01-29T06:25:10;94684.41;;;22.01;48.09
31337;BME280;22846;42.654;23.314;2023-01-29T06:27:36;94700.56;;;22.08;48.25
31337;BME280;22846;42.654;23.314;2023-01-29T06:30:05;94709.91;;;22.07;48.42
31337;BME280;22846;42.654;23.314;2023-01-29T06:32:31;94706.44;;;22.07;48.55
31337;BME280;22846;42.654;23.314;2023-01-29T06:34:57;94717.31;;;22.07;48.33
31337;BME280;22846;42.654;23.314;2023-01-29T06:37:22;94713.81;;;22.06;48.25
31337;BME280;22846;42.654;23.314;2023-01-29T06:39:47;94716.53;;;22.06;48.41
31337;BME280;22846;42.654;23.314;2023-01-29T06:42:13;94729.41;;;22.06;48.20
31337;BME280;22846;42.654;23.314;2023-01-29T06:44:38;94723.16;;;22.05;48.23
31337;BME280;22846;42.654;23.314;2023-01-29T06:47:04;94725.13;;;22.05;48.39
31337;BME280;22846;42.654;23.314;2023-01-29T06:49:29;94722.41;;;22.05;48.42
31337;BME280;22846;42.654;23.314;2023-01-29T06:51:54;94718.91;;;22.04;48.16
31337;BME280;22846;42.654;23.314;2023-01-29T06:54:20;94725.56;;;22.03;48.19
31337;BME280;22846;42.654;23.314;2023-01-29T06:56:45;94723.25;;;22.02;48.27
31337;BME280;22846;42.654;23.314;2023-01-29T06:59:11;94725.28;;;21.98;48.04
31337;BME280;22846;42.654;23.314;2023-01-29T07:01:40;94727.16;;;22.01;48.10
31337;BME280;22846;42.654;23.314;2023-01-29T07:04:08;94734.13;;;22.02;48.30
31337;BME280;22846;42.654;23.314;2023-01-29T07:06:33;94734.91;;;22.02;48.44
31337;BME280;22846;42.654;23.314;2023-01-29T07:08:59;94725.69;;;22.16;48.75
31337;BME280;22846;42.654;23.314;2023-01-29T07:11:24;94730.44;;;22.50;48.33
31337;BME280;22846;42.654;23.314;2023-01-29T07:13:50;94740.19;;;22.83;47.41
31337;BME280;22846;42.654;23.314;2023-01-29T07:16:15;94743.78;;;23.12;47.19
31337;BME280;22846;42.654;23.314;2023-01-29T07:18:41;94747.47;;;23.37;46.37
31337;BME280;22846;42.654;23.314;2023-01-29T07:21:06;94747.44;;;23.53;46.27
31337;BME280;22846;42.654;23.314;2023-01-29T07:23:33;94756.88;;;23.65;46.19
31337;BME280;22846;42.654;23.314;2023-01-29T07:26:03;94750.66;;;23.80;45.90
31337;BME280;22846;42.654;23.314;2023-01-29T07:28:29;94759.91;;;23.98;45.70
31337;BME280;22846;42.654;23.314;2023-01-29T07:30:58;94759.00;;;24.17;44.85
31337;BME280;22846;42.654;23.314;2023-01-29T07:33:24;94762.88;;;24.32;44.49
31337;BME280;22846;42.654;23.314;2023-01-29T07:35:50;94762.69;;;24.39;44.43
31337;BME280;22846;42.654;23.314;2023-01-29T07:38:16;94752.59;;;24.36;44.66
31337;BME280;22846;42.654;23.314;2023-01-29T07:40:41;94760.09;;;24.48;44.27
31337;BME280;22846;42.654;23.314;2023-01-29T07:43:08;94765.69;;;24.57;44.42
31337;BME280;22846;42.654;23.314;2023-01-29T07:45:36;94758.94;;;24.74;44.19
31337;BME280;22846;42.654;23.314;2023-01-29T07:48:02;94759.38;;;24.85;43.75
31337;BME280;22846;42.654;23.314;2023-01-29T07:50:29;94772.50;;;24.90;43.83
31337;BME280;22846;42.654;23.314;2023-01-29T07:52:55;94762.44;;;24.87;44.11
31337;BME280;22846;42.654;23.314;2023-01-29T07:55:21;94770.00;;;24.95;44.06
31337;BME280;22846;42.654;23.314;2023-01-29T07:57:46;94767.16;;;24.99;43.74
31337;BME280;22846;42.654;23.314;2023-01-29T08:00:12;94770.97;;;25.01;44.17
31337;BME280;22846;42.654;23.314;2023-01-29T08:02:39;94776.78;;;25.03;44.04
31337;BME280;22846;42.654;23.314;2023-01-29T08:05:05;94775.59;;;25.04;44.34
31337;BME280;22846;42.654;23.314;2023-01-29T08:07:30;94776.78;;;25.03;44.48
31337;BME280;22846;42.654;23.314;2023-01-29T08:09:56;94781.03;;;25.04;44.65
31337;BME280;22846;42.654;23.314;2023-01-29T08:12:21;94780.16;;;25.07;44.31
31337;BME280;22846;42.654;23.314;2023-01-29T08:14:48;94779.75;;;25.09;44.42
31337;BME280;22846;42.654;23.314;2023-01-29T08:17:14;94774.59;;;25.11;44.67
31337;BME280;22846;42.654;23.314;2023-01-29T08:19:40;94764.53;;;25.08;44.57
31337;BME280;22846;42.654;23.314;2023-01-29T08:22:05;94765.53;;;25.14;44.81
31337;BME280;22846;42.654;23.314;2023-01-29T08:24:31;94778.88;;;25.12;44.60
31337;BME280;22846;42.654;23.314;2023-01-29T08:26:57;94781.59;;;25.12;44.32
31337;BME280;22846;42.654;23.314;2023-01-29T08:29:23;94785.13;;;25.12;44.26
31337;BME280;22846;42.654;23.314;2023-01-29T08:31:48;94785.47;;;25.14;44.75
31337;BME280;22846;42.654;23.314;2023-01-29T08:34:14;94787.06;;;25.12;44.43
31337;BME280;22846;42.654;23.314;2023-01-29T08:36:39;94787.75;;;25.16;44.60
31337;BME280;22846;42.654;23.314;2023-01-29T08:39:05;94768.03;;;24.96;44.69
31337;BME280;22846;42.654;23.314;2023-01-29T08:41:30;94785.34;;;25.18;44.00
31337;BME280;22846;42.654;23.314;2023-01-29T08:43:56;94792.03;;;25.17;43.80
31337;BME280;22846;42.654;23.314;2023-01-29T08:46:22;94788.28;;;25.11;43.75
31337;BME280;22846;42.654;23.314;2023-01-29T08:48:48;94798.69;;;25.16;43.89
31337;BME280;22846;42.654;23.314;2023-01-29T08:51:13;94779.63;;;25.00;43.70
31337;BME280;22846;42.654;23.314;2023-01-29T08:53:39;94800.84;;;25.08;43.95
31337;BME280;22846;42.654;23.314;2023-01-29T08:56:04;94814.94;;;25.07;43.84
31337;BME280;22846;42.654;23.314;2023-01-29T08:58:30;94809.03;;;24.96;44.14
31337;BME280;22846;42.654;23.314;2023-01-29T09:00:55;94813.19;;;24.88;44.68
31337;BME280;22846;42.654;23.314;2023-01-29T09:03:21;94824.31;;;24.81;44.90
31337;BME280;22846;42.654;23.314;2023-01-29T09:05:46;94817.31;;;24.80;45.17
31337;BME280;22846;42.654;23.314;2023-01-29T09:08:12;94812.44;;;24.87;44.79
31337;BME280;22846;42.654;23.314;2023-01-29T09:10:37;94824.00;;;25.04;44.64
31337;BME280;22846;42.654;23.314;2023-01-29T09:13:03;94821.09;;;25.11;44.60
31337;BME280;22846;42.654;23.314;2023-01-29T09:15:28;94816.28;;;25.15;44.73
31337;BME280;22846;42.654;23.314;2023-01-29T09:17:54;94813.91;;;25.17;44.22
31337;BME280;22846;42.654;23.314;2023-01-29T09:20:19;94807.53;;;25.20;44.36
31337;BME280;22846;42.654;23.314;2023-01-29T09:22:45;94818.81;;;25.22;44.05
31337;BME280;22846;42.654;23.314;2023-01-29T09:25:11;94814.88;;;25.23;44.05
31337;BME280;22846;42.654;23.314;2023-01-29T09:27:36;94805.81;;;25.26;44.28
31337;BME280;22846;42.654;23.314;2023-01-29T09:30:03;94812.13;;;25.23;44.19
31337;BME280;22846;42.654;23.314;2023-01-29T09:32:28;94808.97;;;25.24;36.60
31337;BME280;22846;42.654;23.314;2023-01-29T09:34:57;94806.50;;;24.77;28.18
31337;BME280;22846;42.654;23.314;2023-01-29T09:37:22;94813.69;;;24.42;38.07
31337;BME280;22846;42.654;23.314;2023-01-29T09:39:48;94803.06;;;24.32;39.59
31337;BME280;22846;42.654;23.314;2023-01-29T09:42:24;94798.59;;;24.38;41.00
31337;BME280;22846;42.654;23.314;2023-01-29T09:47:32;94805.38;;;24.62;50.69
31337;BME280;22846;42.654;23.314;2023-01-29T09:50:16;94800.28;;;23.91;47.76
31337;BME280;22846;42.654;23.314;2023-01-29T09:52:50;94796.91;;;23.39;49.24
31337;BME280;22846;42.654;23.314;2023-01-29T09:55:27;94796.03;;;22.75;28.57
31337;BME280;22846;42.654;23.314;2023-01-29T09:58:02;94791.97;;;21.86;26.10
31337;BME280;22846;42.654;23.314;2023-01-29T10:00:50;94796.91;;;20.96;29.01
31337;BME280;22846;42.654;23.314;2023-01-29T10:22:56;94773.03;;;24.03;38.73
31337;BME280;22846;42.654;23.314;2023-01-29T10:25:25;94774.31;;;24.27;38.35
31337;BME280;22846;42.654;23.314;2023-01-29T10:27:53;94776.50;;;24.48;38.36
31337;BME280;22846;42.654;23.314;2023-01-29T10:30:30;94769.84;;;24.62;38.37
31337;BME280;22846;42.654;23.314;2023-01-29T10:33:00;94767.44;;;24.76;38.36
31337;BME280;22846;42.654;23.314;2023-01-29T10:35:35;94761.34;;;24.84;38.45
31337;BME280;22846;42.654;23.314;2023-01-29T10:38:28;94756.75;;;24.94;38.88
31337;BME280;22846;42.654;23.314;2023-01-29T10:47:04;94757.66;;;25.16;38.48
31337;BME280;22846;42.654;23.314;2023-01-29T11:00:12;94753.94;;;25.35;38.87
31337;BME280;22846;42.654;23.314;2023-01-29T11:02:47;94750.75;;;25.36;38.94
31337;BME280;22846;42.654;23.314;2023-01-29T11:05:31;94755.34;;;25.39;39.05
31337;BME280;22846;42.654;23.314;2023-01-29T11:08:07;94738.47;;;25.41;39.23
31337;BME280;22846;42.654;23.314;2023-01-29T11:10:46;94741.22;;;25.41;39.16
31337;BME280;22846;42.654;23.314;2023-01-29T11:13:15;94744.28;;;25.43;38.98
31337;BME280;22846;42.654;23.314;2023-01-29T11:15:41;94747.34;;;25.45;39.21
31337;BME280;22846;42.654;23.314;2023-01-29T11:18:12;94738.34;;;25.44;39.50
31337;BME280;22846;42.654;23.314;2023-01-29T11:20:41;94736.69;;;25.47;39.82
31337;BME280;22846;42.654;23.314;2023-01-29T11:23:28;94732.44;;;25.46;40.69
31337;BME280;22846;42.654;23.314;2023-01-29T11:25:56;94700.97;;;25.29;40.91
31337;BME280;22846;42.654;23.314;2023-01-29T11:28:44;94729.41;;;25.44;39.80
31337;BME280;22846;42.654;23.314;2023-01-29T11:31:35;94719.78;;;25.39;40.88
31337;BME280;22846;42.654;23.314;2023-01-29T11:34:22;94720.53;;;25.40;41.42
31337;BME280;22846;42.654;23.314;2023-01-29T11:36:59;94712.31;;;25.40;41.98
31337;BME280;22846;42.654;23.314;2023-01-29T11:39:27;94701.94;;;25.35;42.45
31337;BME280;22846;42.654;23.314;2023-01-29T11:47:20;94696.22;;;25.42;43.11
31337;BME280;22846;42.654;23.314;2023-01-29T11:49:56;94688.91;;;25.39;42.13
31337;BME280;22846;42.654;23.314;2023-01-29T11:52:25;94693.16;;;25.40;43.52
31337;BME280;22846;42.654;23.314;2023-01-29T11:55:22;94702.16;;;25.40;43.38
31337;BME280;22846;42.654;23.314;2023-01-29T11:57:54;94700.84;;;25.45;44.31
31337;BME280;22846;42.654;23.314;2023-01-29T12:00:25;94700.25;;;25.50;44.82
31337;BME280;22846;42.654;23.314;2023-01-29T12:02:56;94693.00;;;25.56;45.16
31337;BME280;22846;42.654;23.314;2023-01-29T12:05:26;94686.91;;;25.52;44.71
31337;BME280;22846;42.654;23.314;2023-01-29T12:07:55;94688.94;;;25.60;45.48
31337;BME280;22846;42.654;23.314;2023-01-29T12:10:40;94688.06;;;25.63;45.38
31337;BME280;22846;42.654;23.314;2023-01-29T12:15:39;94681.19;;;25.59;44.40
31337;BME280;22846;42.654;23.314;2023-01-29T12:18:11;94691.06;;;25.56;45.10
31337;BME280;22846;42.654;23.314;2023-01-29T12:23:33;94681.44;;;25.52;45.48
31337;BME280;22846;42.654;23.314;2023-01-29T12:31:35;94692.69;;;25.54;46.76
31337;BME280;22846;42.654;23.314;2023-01-29T12:39:35;94698.22;;;25.62;47.17
31337;BME280;22846;42.654;23.314;2023-01-29T12:42:07;94699.00;;;25.63;47.04
31337;BME280;22846;42.654;23.314;2023-01-29T12:44:41;94685.88;;;25.58;47.20
31337;BME280;22846;42.654;23.314;2023-01-29T12:47:34;94695.81;;;25.64;47.35
31337;BME280;22846;42.654;23.314;2023-01-29T12:50:09;94690.69;;;25.66;47.39
31337;BME280;22846;42.654;23.314;2023-01-29T12:52:41;94694.94;;;25.67;47.84
31337;BME280;22846;42.654;23.314;2023-01-29T12:55:15;94695.56;;;25.71;48.04
31337;BME280;22846;42.654;23.314;2023-01-29T13:00:18;94693.94;;;25.74;47.83
31337;BME280;22846;42.654;23.314;2023-01-29T13:05:26;94691.53;;;25.76;48.44
31337;BME280;22846;42.654;23.314;2023-01-29T13:08:00;94690.78;;;25.75;48.38
31337;BME280;22846;42.654;23.314;2023-01-29T13:10:36;94683.75;;;25.74;47.95
31337;BME280;22846;42.654;23.314;2023-01-29T13:13:05;94690.31;;;25.77;48.52
31337;BME280;22846;42.654;23.314;2023-01-29T13:15:38;94685.31;;;25.75;48.25
31337;BME280;22846;42.654;23.314;2023-01-29T13:18:52;94680.03;;;25.81;48.30
31337;BME280;22846;42.654;23.314;2023-01-29T13:20:50;94679.84;;;25.75;48.40
31337;BME280;22846;42.654;23.314;2023-01-29T13:23:20;94685.31;;;25.75;48.42
31337;BME280;22846;42.654;23.314;2023-01-29T13:25:49;94673.81;;;25.68;48.51
31337;BME280;22846;42.654;23.314;2023-01-29T13:28:21;94669.22;;;25.65;48.04
31337;BME280;22846;42.654;23.314;2023-01-29T13:31:26;94683.13;;;25.70;48.61
31337;BME280;22846;42.654;23.314;2023-01-29T13:33:58;94698.69;;;25.61;49.01
31337;BME280;22846;42.654;23.314;2023-01-29T13:36:27;94699.94;;;25.48;48.95
31337;BME280;22846;42.654;23.314;2023-01-29T13:39:00;94703.03;;;25.37;49.39
31337;BME280;22846;42.654;23.314;2023-01-29T13:41:39;94704.69;;;25.35;48.96
31337;BME280;22846;42.654;23.314;2023-01-29T13:44:19;94713.19;;;25.37;48.96
31337;BME280;22846;42.654;23.314;2023-01-29T13:47:05;94708.63;;;25.34;49.68
31337;BME280;22846;42.654;23.314;2023-01-29T13:49:46;94703.59;;;25.20;49.28
31337;BME280;22846;42.654;23.314;2023-01-29T13:52:36;94716.97;;;25.18;49.79
31337;BME280;22846;42.654;23.314;2023-01-29T13:55:29;94714.22;;;25.18;49.39
31337;BME280;22846;42.654;23.314;2023-01-29T13:57:59;94719.59;;;25.21;48.63
31337;BME280;22846;42.654;23.314;2023-01-29T14:10:38;94722.94;;;25.38;48.86
31337;BME280;22846;42.654;23.314;2023-01-29T14:15:37;94728.50;;;25.47;49.11
31337;BME280;22846;42.654;23.314;2023-01-29T14:18:23;94736.16;;;25.52;48.96
31337;BME280;22846;42.654;23.314;2023-01-29T14:21:16;94730.56;;;25.55;48.48
31337;BME280;22846;42.654;23.314;2023-01-29T14:23:57;94733.19;;;25.59;48.67
31337;BME280;22846;42.654;23.314;2023-01-29T14:26:33;94744.47;;;25.61;48.83
31337;BME280;22846;42.654;23.314;2023-01-29T14:31:54;94748.16;;;25.66;49.31
31337;BME280;22846;42.654;23.314;2023-01-29T14:36:52;94748.69;;;25.74;49.07
31337;BME280;22846;42.654;23.314;2023-01-29T14:42:03;94757.91;;;25.80;49.25
31337;BME280;22846;42.654;23.314;2023-01-29T14:52:46;94763.00;;;25.90;49.19
31337;BME280;22846;42.654;23.314;2023-01-29T14:55:25;94746.81;;;25.83;49.10
31337;BME280;22846;42.654;23.314;2023-01-29T14:57:53;94752.50;;;25.89;49.28
31337;BME280;22846;42.654;23.314;2023-01-29T15:00:29;94748.69;;;25.86;49.02
31337;BME280;22846;42.654;23.314;2023-01-29T15:02:55;94751.84;;;25.85;49.29
31337;BME280;22846;42.654;23.314;2023-01-29T15:05:25;94752.16;;;25.87;49.62
31337;BME280;22846;42.654;23.314;2023-01-29T15:08:00;94755.69;;;25.87;49.53
31337;BME280;22846;42.654;23.314;2023-01-29T15:18:16;94750.38;;;25.93;49.54
31337;BME280;22846;42.654;23.314;2023-01-29T15:20:43;94753.47;;;25.95;49.12
31337;BME280;22846;42.654;23.314;2023-01-29T15:23:26;94758.72;;;25.89;47.16
31337;BME280;22846;42.654;23.314;2023-01-29T15:25:54;94754.16;;;25.86;47.87
31337;BME280;22846;42.654;23.314;2023-01-29T15:28:21;94743.69;;;25.60;31.69